sensor_id;sensor_type;location;lat;lon;timestamp;P1;P2;P0
70915;PMS5003;58557;50.982;-3.222;2023-06-22T00:00:26;15;13;
70915;PMS5003;58557;50.982;-3.222;2023-06-22T00:02:51;14;14;
70915;PMS5003;58557;50.982;-3.222;2023-06-22T00:05:17;12;9;
70915;PMS5003;58557;50.982;-3.222;2023-06-22T00:07:42;14;13;
70915;PMS5003;58557;50.982;-3.222;2023-06-22T00:10:07;14;14;
70915;PMS5003;58557;50.982;-3.222;2023-06-22T00:12:33;10;10;
70915;PMS5003;58557;50.982;-3.222;2023-06-22T00:14:58;10;10;
70915;PMS5003;58557;50.982;-3.222;2023-06-22T00:17:24;10;10;
70915;PMS5003;58557;50.982;-3.222;2023-06-22T00:19:50;8;8;
70915;PMS5003;58557;50.982;-3.222;2023-06-22T00:22:15;11;10;
70915;PMS5003;58557;50.982;-3.222;2023-06-22T00:24:41;16;11;
70915;PMS5003;58557;50.982;-3.222;2023-06-22T00:27:06;10;10;
70915;PMS5003;58557;50.982;-3.222;2023-06-22T00:29:32;11;10;
70915;PMS5003;58557;50.982;-3.222;2023-06-22T00:31:57;13;13;
70915;PMS5003;58557;50.982;-3.222;2023-06-22T00:34:23;16;13;
70915;PMS5003;58557;50.982;-3.222;2023-06-22T00:36:49;11;11;
70915;PMS5003;58557;50.982;-3.222;2023-06-22T00:39:14;12;11;
70915;PMS5003;58557;50.982;-3.222;2023-06-22T00:41:39;15;14;
70915;PMS5003;58557;50.982;-3.222;2023-06-22T00:44:05;13;13;
70915;PMS5003;58557;50.982;-3.222;2023-06-22T00:46:31;14;14;
70915;PMS5003;58557;50.982;-3.222;2023-06-22T00:48:56;15;14;
70915;PMS5003;58557;50.982;-3.222;2023-06-22T00:51:22;12;12;
70915;PMS5003;58557;50.982;-3.222;2023-06-22T00:53:47;23;18;
70915;PMS5003;58557;50.982;-3.222;2023-06-22T00:56:13;14;13;
70915;PMS5003;58557;50.982;-3.222;2023-06-22T00:58:38;14;11;
70915;PMS5003;58557;50.982;-3.222;2023-06-22T01:01:03;17;17;
70915;PMS5003;58557;50.982;-3.222;2023-06-22T01:03:28;14;14;
70915;PMS5003;58557;50.982;-3.222;2023-06-22T01:05:54;13;12;
70915;PMS5003;58557;50.982;-3.222;2023-06-22T01:08:22;14;13;
70915;PMS5003;58557;50.982;-3.222;2023-06-22T01:10:45;13;12;
70915;PMS5003;58557;50.982;-3.222;2023-06-22T01:13:12;15;15;
70915;PMS5003;58557;50.982;-3.222;2023-06-22T01:15:36;14;11;
70915;PMS5003;58557;50.982;-3.222;2023-06-22T01:18:01;13;12;
70915;PMS5003;58557;50.982;-3.222;2023-06-22T01:20:26;16;12;
70915;PMS5003;58557;50.982;-3.222;2023-06-22T01:22:58;12;10;
70915;PMS5003;58557;50.982;-3.222;2023-06-22T01:25:19;13;11;
70915;PMS5003;58557;50.982;-3.222;2023-06-22T01:27:47;13;12;
70915;PMS5003;58557;50.982;-3.222;2023-06-22T01:30:09;9;9;
70915;PMS5003;58557;50.982;-3.222;2023-06-22T01:32:34;17;17;
70915;PMS5003;58557;50.982;-3.222;2023-06-22T01:35:00;15;13;
70915;PMS5003;58557;50.982;-3.222;2023-06-22T01:37:26;14;14;
70915;PMS5003;58557;50.982;-3.222;2023-06-22T01:39:51;12;11;
70915;PMS5003;58557;50.982;-3.222;2023-06-22T01:42:17;15;14;
70915;PMS5003;58557;50.982;-3.222;2023-06-22T01:44:43;15;14;
70915;PMS5003;58557;50.982;-3.222;2023-06-22T01:47:08;17;14;
70915;PMS5003;58557;50.982;-3.222;2023-06-22T01:49:33;17;16;
70915;PMS5003;58557;50.982;-3.222;2023-06-22T01:51:59;14;14;
70915;PMS5003;58557;50.982;-3.222;2023-06-22T01:54:24;13;13;
70915;PMS5003;58557;50.982;-3.222;2023-06-22T01:56:49;18;17;
70915;PMS5003;58557;50.982;-3.222;2023-06-22T01:59:17;20;19;
70915;PMS5003;58557;50.982;-3.222;2023-06-22T02:01:42;13;12;
70915;PMS5003;58557;50.982;-3.222;2023-06-22T02:04:08;15;14;
70915;PMS5003;58557;50.982;-3.222;2023-06-22T02:06:33;19;16;
70915;PMS5003;58557;50.982;-3.222;2023-06-22T02:08:59;15;15;
70915;PMS5003;58557;50.982;-3.222;2023-06-22T02:11:22;19;18;
70915;PMS5003;58557;50.982;-3.222;2023-06-22T02:13:48;11;11;
70915;PMS5003;58557;50.982;-3.222;2023-06-22T02:16:13;16;15;
70915;PMS5003;58557;50.982;-3.222;2023-06-22T02:18:39;15;14;
70915;PMS5003;58557;50.982;-3.222;2023-06-22T02:21:04;13;13;
70915;PMS5003;58557;50.982;-3.222;2023-06-22T02:23:29;16;15;
70915;PMS5003;58557;50.982;-3.222;2023-06-22T02:25:55;14;12;
70915;PMS5003;58557;50.982;-3.222;2023-06-22T02:28:20;18;18;
70915;PMS5003;58557;50.982;-3.222;2023-06-22T02:30:46;19;18;
70915;PMS5003;58557;50.982;-3.222;2023-06-22T02:33:11;15;15;
70915;PMS5003;58557;50.982;-3.222;2023-06-22T02:35:37;13;12;
70915;PMS5003;58557;50.982;-3.222;2023-06-22T02:38:03;11;11;
70915;PMS5003;58557;50.982;-3.222;2023-06-22T02:40:28;12;12;
70915;PMS5003;58557;50.982;-3.222;2023-06-22T02:42:53;11;11;
70915;PMS5003;58557;50.982;-3.222;2023-06-22T02:45:19;14;14;
70915;PMS5003;58557;50.982;-3.222;2023-06-22T02:47:44;16;14;
70915;PMS5003;58557;50.982;-3.222;2023-06-22T02:50:10;14;12;
70915;PMS5003;58557;50.982;-3.222;2023-06-22T02:52:35;14;14;
70915;PMS5003;58557;50.982;-3.222;2023-06-22T02:55:01;15;14;
70915;PMS5003;58557;50.982;-3.222;2023-06-22T02:57:26;14;13;
70915;PMS5003;58557;50.982;-3.222;2023-06-22T02:59:51;12;11;
70915;PMS5003;58557;50.982;-3.222;2023-06-22T03:02:17;12;11;
70915;PMS5003;58557;50.982;-3.222;2023-06-22T03:04:42;13;13;
70915;PMS5003;58557;50.982;-3.222;2023-06-22T03:07:08;13;13;
70915;PMS5003;58557;50.982;-3.222;2023-06-22T03:09:33;12;12;
70915;PMS5003;58557;50.982;-3.222;2023-06-22T03:11:58;14;14;
70915;PMS5003;58557;50.982;-3.222;2023-06-22T03:14:24;13;11;
70915;PMS5003;58557;50.982;-3.222;2023-06-22T03:16:49;13;12;
70915;PMS5003;58557;50.982;-3.222;2023-06-22T03:19:15;12;11;
70915;PMS5003;58557;50.982;-3.222;2023-06-22T03:21:40;12;10;
70915;PMS5003;58557;50.982;-3.222;2023-06-22T03:24:05;8;8;
70915;PMS5003;58557;50.982;-3.222;2023-06-22T03:26:31;13;12;
70915;PMS5003;58557;50.982;-3.222;2023-06-22T03:28:56;14;13;
70915;PMS5003;58557;50.982;-3.222;2023-06-22T03:31:22;12;11;
70915;PMS5003;58557;50.982;-3.222;2023-06-22T03:33:47;14;13;
70915;PMS5003;58557;50.982;-3.222;2023-06-22T03:36:13;13;11;
70915;PMS5003;58557;50.982;-3.222;2023-06-22T03:38:38;13;11;
70915;PMS5003;58557;50.982;-3.222;2023-06-22T03:41:04;14;12;
70915;PMS5003;58557;50.982;-3.222;2023-06-22T03:43:29;16;16;
70915;PMS5003;58557;50.982;-3.222;2023-06-22T03:45:54;15;14;
70915;PMS5003;58557;50.982;-3.222;2023-06-22T03:48:20;14;12;
70915;PMS5003;58557;50.982;-3.222;2023-06-22T03:50:45;10;10;
70915;PMS5003;58557;50.982;-3.222;2023-06-22T03:53:11;11;11;
70915;PMS5003;58557;50.982;-3.222;2023-06-22T03:55:37;11;10;
70915;PMS5003;58557;50.982;-3.222;2023-06-22T03:58:02;15;15;
70915;PMS5003;58557;50.982;-3.222;2023-06-22T04:00:27;11;11;
70915;PMS5003;58557;50.982;-3.222;2023-06-22T04:02:53;8;8;
70915;PMS5003;58557;50.982;-3.222;2023-06-22T04:05:18;10;10;
70915;PMS5003;58557;50.982;-3.222;2023-06-22T04:07:43;18;15;
70915;PMS5003;58557;50.982;-3.222;2023-06-22T04:10:09;11;11;
70915;PMS5003;58557;50.982;-3.222;2023-06-22T04:12:34;11;9;
70915;PMS5003;58557;50.982;-3.222;2023-06-22T04:15:00;10;9;
70915;PMS5003;58557;50.982;-3.222;2023-06-22T04:17:25;10;10;
70915;PMS5003;58557;50.982;-3.222;2023-06-22T04:19:51;12;12;
70915;PMS5003;58557;50.982;-3.222;2023-06-22T04:22:17;10;9;
70915;PMS5003;58557;50.982;-3.222;2023-06-22T04:24:42;15;14;
70915;PMS5003;58557;50.982;-3.222;2023-06-22T04:27:07;16;15;
70915;PMS5003;58557;50.982;-3.222;2023-06-22T04:29:33;12;10;
70915;PMS5003;58557;50.982;-3.222;2023-06-22T04:31:58;12;10;
70915;PMS5003;58557;50.982;-3.222;2023-06-22T04:34:24;13;11;
70915;PMS5003;58557;50.982;-3.222;2023-06-22T04:36:49;13;11;
70915;PMS5003;58557;50.982;-3.222;2023-06-22T04:39:14;16;16;
70915;PMS5003;58557;50.982;-3.222;2023-06-22T04:41:40;15;14;
70915;PMS5003;58557;50.982;-3.222;2023-06-22T04:44:06;11;10;
70915;PMS5003;58557;50.982;-3.222;2023-06-22T04:46:31;12;12;
70915;PMS5003;58557;50.982;-3.222;2023-06-22T04:48:56;14;12;
70915;PMS5003;58557;50.982;-3.222;2023-06-22T04:51:22;22;21;
70915;PMS5003;58557;50.982;-3.222;2023-06-22T04:53:47;14;13;
70915;PMS5003;58557;50.982;-3.222;2023-06-22T04:56:12;12;11;
70915;PMS5003;58557;50.982;-3.222;2023-06-22T04:58:37;13;10;
70915;PMS5003;58557;50.982;-3.222;2023-06-22T05:01:03;15;14;
70915;PMS5003;58557;50.982;-3.222;2023-06-22T05:03:29;16;14;
70915;PMS5003;58557;50.982;-3.222;2023-06-22T05:05:54;18;16;
70915;PMS5003;58557;50.982;-3.222;2023-06-22T05:08:19;15;14;
70915;PMS5003;58557;50.982;-3.222;2023-06-22T05:10:44;16;13;
70915;PMS5003;58557;50.982;-3.222;2023-06-22T05:13:09;16;15;
70915;PMS5003;58557;50.982;-3.222;2023-06-22T05:15:35;19;19;
70915;PMS5003;58557;50.982;-3.222;2023-06-22T05:18:01;16;15;
70915;PMS5003;58557;50.982;-3.222;2023-06-22T05:20:26;15;15;
70915;PMS5003;58557;50.982;-3.222;2023-06-22T05:22:52;19;18;
70915;PMS5003;58557;50.982;-3.222;2023-06-22T05:25:18;17;16;
70915;PMS5003;58557;50.982;-3.222;2023-06-22T05:27:43;14;13;
70915;PMS5003;58557;50.982;-3.222;2023-06-22T05:30:08;14;14;
70915;PMS5003;58557;50.982;-3.222;2023-06-22T05:32:34;12;11;
70915;PMS5003;58557;50.982;-3.222;2023-06-22T05:34:59;14;14;
70915;PMS5003;58557;50.982;-3.222;2023-06-22T05:37:25;15;12;
70915;PMS5003;58557;50.982;-3.222;2023-06-22T05:39:50;17;15;
70915;PMS5003;58557;50.982;-3.222;2023-06-22T05:42:16;14;13;
70915;PMS5003;58557;50.982;-3.222;2023-06-22T05:44:41;14;11;
70915;PMS5003;58557;50.982;-3.222;2023-06-22T05:47:06;10;10;
70915;PMS5003;58557;50.982;-3.222;2023-06-22T05:49:32;13;13;
70915;PMS5003;58557;50.982;-3.222;2023-06-22T05:51:58;16;15;
70915;PMS5003;58557;50.982;-3.222;2023-06-22T05:54:23;18;16;
70915;PMS5003;58557;50.982;-3.222;2023-06-22T05:56:49;12;12;
70915;PMS5003;58557;50.982;-3.222;2023-06-22T05:59:14;14;14;
70915;PMS5003;58557;50.982;-3.222;2023-06-22T06:01:40;13;12;
70915;PMS5003;58557;50.982;-3.222;2023-06-22T06:04:06;13;13;
70915;PMS5003;58557;50.982;-3.222;2023-06-22T06:06:31;13;12;
70915;PMS5003;58557;50.982;-3.222;2023-06-22T06:08:56;14;13;
70915;PMS5003;58557;50.982;-3.222;2023-06-22T06:11:22;12;12;
70915;PMS5003;58557;50.982;-3.222;2023-06-22T06:13:48;15;10;
70915;PMS5003;58557;50.982;-3.222;2023-06-22T06:16:13;13;12;
70915;PMS5003;58557;50.982;-3.222;2023-06-22T06:18:38;14;13;
70915;PMS5003;58557;50.982;-3.222;2023-06-22T06:21:04;11;10;
70915;PMS5003;58557;50.982;-3.222;2023-06-22T06:23:29;11;11;
70915;PMS5003;58557;50.982;-3.222;2023-06-22T06:25:55;12;10;
70915;PMS5003;58557;50.982;-3.222;2023-06-22T06:28:20;13;13;
70915;PMS5003;58557;50.982;-3.222;2023-06-22T06:30:45;16;16;
70915;PMS5003;58557;50.982;-3.222;2023-06-22T06:33:11;15;12;
70915;PMS5003;58557;50.982;-3.222;2023-06-22T06:35:36;14;13;
70915;PMS5003;58557;50.982;-3.222;2023-06-22T06:38:01;12;12;
70915;PMS5003;58557;50.982;-3.222;2023-06-22T06:40:27;9;9;
70915;PMS5003;58557;50.982;-3.222;2023-06-22T06:42:52;11;11;
70915;PMS5003;58557;50.982;-3.222;2023-06-22T06:45:18;9;8;
70915;PMS5003;58557;50.982;-3.222;2023-06-22T06:47:43;12;12;
70915;PMS5003;58557;50.982;-3.222;2023-06-22T06:50:10;9;9;
70915;PMS5003;58557;50.982;-3.222;2023-06-22T06:52:35;12;11;
70915;PMS5003;58557;50.982;-3.222;2023-06-22T06:55:00;13;11;
70915;PMS5003;58557;50.982;-3.222;2023-06-22T06:57:26;14;13;
70915;PMS5003;58557;50.982;-3.222;2023-06-22T06:59:51;11;11;
70915;PMS5003;58557;50.982;-3.222;2023-06-22T07:02:17;12;12;
70915;PMS5003;58557;50.982;-3.222;2023-06-22T07:04:43;10;8;
70915;PMS5003;58557;50.982;-3.222;2023-06-22T07:07:08;10;9;
70915;PMS5003;58557;50.982;-3.222;2023-06-22T07:09:34;9;9;
70915;PMS5003;58557;50.982;-3.222;2023-06-22T07:11:59;11;9;
70915;PMS5003;58557;50.982;-3.222;2023-06-22T07:14:25;10;9;
70915;PMS5003;58557;50.982;-3.222;2023-06-22T07:16:50;8;8;
70915;PMS5003;58557;50.982;-3.222;2023-06-22T07:19:16;11;9;
70915;PMS5003;58557;50.982;-3.222;2023-06-22T07:21:41;10;10;
70915;PMS5003;58557;50.982;-3.222;2023-06-22T07:24:07;10;10;
70915;PMS5003;58557;50.982;-3.222;2023-06-22T07:26:33;9;9;
70915;PMS5003;58557;50.982;-3.222;2023-06-22T07:28:58;9;9;
70915;PMS5003;58557;50.982;-3.222;2023-06-22T07:31:24;12;10;
70915;PMS5003;58557;50.982;-3.222;2023-06-22T07:33:49;13;10;
70915;PMS5003;58557;50.982;-3.222;2023-06-22T07:36:16;9;8;
70915;PMS5003;58557;50.982;-3.222;2023-06-22T07:38:40;8;8;
70915;PMS5003;58557;50.982;-3.222;2023-06-22T07:41:06;8;8;
70915;PMS5003;58557;50.982;-3.222;2023-06-22T07:43:31;7;6;
70915;PMS5003;58557;50.982;-3.222;2023-06-22T07:45:57;8;7;
70915;PMS5003;58557;50.982;-3.222;2023-06-22T07:48:22;10;9;
70915;PMS5003;58557;50.982;-3.222;2023-06-22T07:50:48;7;7;
70915;PMS5003;58557;50.982;-3.222;2023-06-22T07:53:13;9;9;
70915;PMS5003;58557;50.982;-3.222;2023-06-22T07:55:39;10;10;
70915;PMS5003;58557;50.982;-3.222;2023-06-22T07:58:04;7;6;
70915;PMS5003;58557;50.982;-3.222;2023-06-22T08:00:30;11;9;
70915;PMS5003;58557;50.982;-3.222;2023-06-22T08:02:55;13;9;
70915;PMS5003;58557;50.982;-3.222;2023-06-22T08:05:20;10;9;
70915;PMS5003;58557;50.982;-3.222;2023-06-22T08:07:45;9;8;
70915;PMS5003;58557;50.982;-3.222;2023-06-22T08:10:11;8;7;
70915;PMS5003;58557;50.982;-3.222;2023-06-22T08:12:36;8;8;
70915;PMS5003;58557;50.982;-3.222;2023-06-22T08:15:02;9;7;
70915;PMS5003;58557;50.982;-3.222;2023-06-22T08:17:27;8;8;
70915;PMS5003;58557;50.982;-3.222;2023-06-22T08:19:53;7;7;
70915;PMS5003;58557;50.982;-3.222;2023-06-22T08:22:18;11;9;
70915;PMS5003;58557;50.982;-3.222;2023-06-22T08:24:44;9;8;
70915;PMS5003;58557;50.982;-3.222;2023-06-22T08:27:10;9;9;
70915;PMS5003;58557;50.982;-3.222;2023-06-22T08:29:35;6;6;
70915;PMS5003;58557;50.982;-3.222;2023-06-22T08:32:00;8;8;
70915;PMS5003;58557;50.982;-3.222;2023-06-22T08:34:26;8;8;
70915;PMS5003;58557;50.982;-3.222;2023-06-22T08:36:51;8;8;
70915;PMS5003;58557;50.982;-3.222;2023-06-22T08:39:17;6;6;
70915;PMS5003;58557;50.982;-3.222;2023-06-22T08:41:42;12;8;
70915;PMS5003;58557;50.982;-3.222;2023-06-22T08:44:07;12;11;
70915;PMS5003;58557;50.982;-3.222;2023-06-22T08:46:33;10;10;
70915;PMS5003;58557;50.982;-3.222;2023-06-22T08:48:59;9;9;
70915;PMS5003;58557;50.982;-3.222;2023-06-22T08:51:24;10;10;
70915;PMS5003;58557;50.982;-3.222;2023-06-22T08:53:49;10;10;
70915;PMS5003;58557;50.982;-3.222;2023-06-22T08:56:15;9;8;
70915;PMS5003;58557;50.982;-3.222;2023-06-22T08:58:40;14;12;
70915;PMS5003;58557;50.982;-3.222;2023-06-22T09:01:06;13;13;
70915;PMS5003;58557;50.982;-3.222;2023-06-22T09:03:32;11;10;
70915;PMS5003;58557;50.982;-3.222;2023-06-22T09:05:57;10;10;
70915;PMS5003;58557;50.982;-3.222;2023-06-22T09:08:23;10;10;
70915;PMS5003;58557;50.982;-3.222;2023-06-22T09:10:48;12;11;
70915;PMS5003;58557;50.982;-3.222;2023-06-22T09:13:14;13;12;
70915;PMS5003;58557;50.982;-3.222;2023-06-22T09:15:39;9;9;
70915;PMS5003;58557;50.982;-3.222;2023-06-22T09:18:05;9;9;
70915;PMS5003;58557;50.982;-3.222;2023-06-22T09:20:30;13;11;
70915;PMS5003;58557;50.982;-3.222;2023-06-22T09:22:56;13;8;
70915;PMS5003;58557;50.982;-3.222;2023-06-22T09:25:21;11;11;
70915;PMS5003;58557;50.982;-3.222;2023-06-22T09:27:46;14;14;
70915;PMS5003;58557;50.982;-3.222;2023-06-22T09:30:12;12;9;
70915;PMS5003;58557;50.982;-3.222;2023-06-22T09:32:37;10;10;
70915;PMS5003;58557;50.982;-3.222;2023-06-22T09:35:04;11;11;
70915;PMS5003;58557;50.982;-3.222;2023-06-22T09:37:28;8;7;
70915;PMS5003;58557;50.982;-3.222;2023-06-22T09:39:54;9;8;
70915;PMS5003;58557;50.982;-3.222;2023-06-22T09:42:19;10;10;
70915;PMS5003;58557;50.982;-3.222;2023-06-22T09:44:45;11;8;
70915;PMS5003;58557;50.982;-3.222;2023-06-22T09:47:10;9;9;
70915;PMS5003;58557;50.982;-3.222;2023-06-22T09:49:36;10;10;
70915;PMS5003;58557;50.982;-3.222;2023-06-22T09:52:01;8;7;
70915;PMS5003;58557;50.982;-3.222;2023-06-22T09:54:27;8;5;
70915;PMS5003;58557;50.982;-3.222;2023-06-22T09:56:52;8;8;
70915;PMS5003;58557;50.982;-3.222;2023-06-22T09:59:18;7;6;
70915;PMS5003;58557;50.982;-3.222;2023-06-22T10:01:43;8;7;
70915;PMS5003;58557;50.982;-3.222;2023-06-22T10:04:09;7;7;
70915;PMS5003;58557;50.982;-3.222;2023-06-22T10:06:34;5;5;
70915;PMS5003;58557;50.982;-3.222;2023-06-22T10:09:00;10;7;
70915;PMS5003;58557;50.982;-3.222;2023-06-22T10:11:25;8;8;
70915;PMS5003;58557;50.982;-3.222;2023-06-22T10:13:51;8;7;
70915;PMS5003;58557;50.982;-3.222;2023-06-22T10:16:16;9;9;
70915;PMS5003;58557;50.982;-3.222;2023-06-22T10:18:42;9;8;
70915;PMS5003;58557;50.982;-3.222;2023-06-22T10:21:07;10;8;
70915;PMS5003;58557;50.982;-3.222;2023-06-22T10:23:33;8;8;
70915;PMS5003;58557;50.982;-3.222;2023-06-22T10:25:58;7;7;
70915;PMS5003;58557;50.982;-3.222;2023-06-22T10:28:24;7;6;
70915;PMS5003;58557;50.982;-3.222;2023-06-22T10:30:49;6;6;
70915;PMS5003;58557;50.982;-3.222;2023-06-22T10:33:15;8;7;
70915;PMS5003;58557;50.982;-3.222;2023-06-22T10:35:40;8;7;
70915;PMS5003;58557;50.982;-3.222;2023-06-22T10:38:06;9;7;
70915;PMS5003;58557;50.982;-3.222;2023-06-22T10:40:32;10;9;
70915;PMS5003;58557;50.982;-3.222;2023-06-22T10:42:57;6;6;
70915;PMS5003;58557;50.982;-3.222;2023-06-22T10:45:23;9;9;
70915;PMS5003;58557;50.982;-3.222;2023-06-22T10:47:48;9;7;
70915;PMS5003;58557;50.982;-3.222;2023-06-22T10:50:13;9;8;
70915;PMS5003;58557;50.982;-3.222;2023-06-22T10:52:39;9;9;
70915;PMS5003;58557;50.982;-3.222;2023-06-22T10:55:05;7;7;
70915;PMS5003;58557;50.982;-3.222;2023-06-22T10:57:30;8;7;
70915;PMS5003;58557;50.982;-3.222;2023-06-22T10:59:56;9;9;
70915;PMS5003;58557;50.982;-3.222;2023-06-22T11:02:21;9;9;
70915;PMS5003;58557;50.982;-3.222;2023-06-22T11:04:46;10;10;
70915;PMS5003;58557;50.982;-3.222;2023-06-22T11:07:12;8;8;
70915;PMS5003;58557;50.982;-3.222;2023-06-22T11:09:37;9;9;
70915;PMS5003;58557;50.982;-3.222;2023-06-22T11:12:03;12;10;
70915;PMS5003;58557;50.982;-3.222;2023-06-22T11:14:28;12;11;
70915;PMS5003;58557;50.982;-3.222;2023-06-22T11:16:54;8;7;
70915;PMS5003;58557;50.982;-3.222;2023-06-22T11:19:19;9;9;
70915;PMS5003;58557;50.982;-3.222;2023-06-22T11:21:45;12;12;
70915;PMS5003;58557;50.982;-3.222;2023-06-22T11:24:11;11;10;
70915;PMS5003;58557;50.982;-3.222;2023-06-22T11:26:36;13;12;
70915;PMS5003;58557;50.982;-3.222;2023-06-22T11:29:02;9;9;
70915;PMS5003;58557;50.982;-3.222;2023-06-22T11:31:27;12;10;
70915;PMS5003;58557;50.982;-3.222;2023-06-22T11:33:52;13;9;
70915;PMS5003;58557;50.982;-3.222;2023-06-22T11:36:18;9;9;
70915;PMS5003;58557;50.982;-3.222;2023-06-22T11:38:43;12;10;
70915;PMS5003;58557;50.982;-3.222;2023-06-22T11:41:09;9;8;
70915;PMS5003;58557;50.982;-3.222;2023-06-22T11:43:35;9;6;
70915;PMS5003;58557;50.982;-3.222;2023-06-22T11:46:00;7;7;
70915;PMS5003;58557;50.982;-3.222;2023-06-22T11:48:25;11;7;
70915;PMS5003;58557;50.982;-3.222;2023-06-22T11:50:50;9;7;
70915;PMS5003;58557;50.982;-3.222;2023-06-22T11:53:16;7;7;
70915;PMS5003;58557;50.982;-3.222;2023-06-22T11:55:41;7;7;
70915;PMS5003;58557;50.982;-3.222;2023-06-22T11:58:07;7;6;
70915;PMS5003;58557;50.982;-3.222;2023-06-22T12:00:32;6;6;
70915;PMS5003;58557;50.982;-3.222;2023-06-22T12:02:58;5;5;
70915;PMS5003;58557;50.982;-3.222;2023-06-22T12:05:23;6;6;
70915;PMS5003;58557;50.982;-3.222;2023-06-22T12:07:49;5;5;
70915;PMS5003;58557;50.982;-3.222;2023-06-22T12:10:14;10;8;
70915;PMS5003;58557;50.982;-3.222;2023-06-22T12:12:40;6;6;
70915;PMS5003;58557;50.982;-3.222;2023-06-22T12:15:05;8;7;
70915;PMS5003;58557;50.982;-3.222;2023-06-22T12:17:30;5;5;
70915;PMS5003;58557;50.982;-3.222;2023-06-22T12:19:56;6;6;
70915;PMS5003;58557;50.982;-3.222;2023-06-22T12:22:21;8;8;
70915;PMS5003;58557;50.982;-3.222;2023-06-22T12:24:47;6;6;
70915;PMS5003;58557;50.982;-3.222;2023-06-22T12:27:12;8;7;
70915;PMS5003;58557;50.982;-3.222;2023-06-22T12:29:38;7;7;
70915;PMS5003;58557;50.982;-3.222;2023-06-22T12:32:04;5;5;
70915;PMS5003;58557;50.982;-3.222;2023-06-22T12:34:29;8;7;
70915;PMS5003;58557;50.982;-3.222;2023-06-22T12:36:54;6;5;
70915;PMS5003;58557;50.982;-3.222;2023-06-22T12:39:20;6;6;
70915;PMS5003;58557;50.982;-3.222;2023-06-22T12:41:45;7;7;
70915;PMS5003;58557;50.982;-3.222;2023-06-22T12:44:11;6;6;
70915;PMS5003;58557;50.982;-3.222;2023-06-22T12:46:36;5;5;
70915;PMS5003;58557;50.982;-3.222;2023-06-22T12:49:02;6;6;
70915;PMS5003;58557;50.982;-3.222;2023-06-22T12:51:27;5;5;
70915;PMS5003;58557;50.982;-3.222;2023-06-22T12:53:53;4;4;
70915;PMS5003;58557;50.982;-3.222;2023-06-22T12:56:18;5;5;
70915;PMS5003;58557;50.982;-3.222;2023-06-22T12:58:44;6;6;
70915;PMS5003;58557;50.982;-3.222;2023-06-22T13:01:09;6;6;
70915;PMS5003;58557;50.982;-3.222;2023-06-22T13:03:35;3;3;
70915;PMS5003;58557;50.982;-3.222;2023-06-22T13:06:00;6;6;
70915;PMS5003;58557;50.982;-3.222;2023-06-22T13:08:26;4;4;
70915;PMS5003;58557;50.982;-3.222;2023-06-22T13:10:51;5;5;
70915;PMS5003;58557;50.982;-3.222;2023-06-22T13:13:16;5;5;
70915;PMS5003;58557;50.982;-3.222;2023-06-22T13:15:42;5;5;
70915;PMS5003;58557;50.982;-3.222;2023-06-22T13:18:07;4;4;
70915;PMS5003;58557;50.982;-3.222;2023-06-22T13:20:33;7;4;
70915;PMS5003;58557;50.982;-3.222;2023-06-22T13:22:58;5;4;
70915;PMS5003;58557;50.982;-3.222;2023-06-22T13:25:24;5;5;
70915;PMS5003;58557;50.982;-3.222;2023-06-22T13:27:49;3;3;
70915;PMS5003;58557;50.982;-3.222;2023-06-22T13:30:15;3;3;
70915;PMS5003;58557;50.982;-3.222;2023-06-22T13:32:40;6;5;
70915;PMS5003;58557;50.982;-3.222;2023-06-22T13:35:06;4;4;
70915;PMS5003;58557;50.982;-3.222;2023-06-22T13:37:31;4;4;
70915;PMS5003;58557;50.982;-3.222;2023-06-22T13:39:57;4;3;
70915;PMS5003;58557;50.982;-3.222;2023-06-22T13:42:23;4;4;
70915;PMS5003;58557;50.982;-3.222;2023-06-22T13:44:48;4;4;
70915;PMS5003;58557;50.982;-3.222;2023-06-22T13:47:13;5;5;
70915;PMS5003;58557;50.982;-3.222;2023-06-22T13:49:38;3;3;
70915;PMS5003;58557;50.982;-3.222;2023-06-22T13:52:04;6;6;
70915;PMS5003;58557;50.982;-3.222;2023-06-22T13:54:29;7;5;
70915;PMS5003;58557;50.982;-3.222;2023-06-22T13:56:54;7;7;
70915;PMS5003;58557;50.982;-3.222;2023-06-22T13:59:20;5;5;
70915;PMS5003;58557;50.982;-3.222;2023-06-22T14:01:45;4;4;
70915;PMS5003;58557;50.982;-3.222;2023-06-22T14:04:11;3;3;
70915;PMS5003;58557;50.982;-3.222;2023-06-22T14:06:37;3;3;
70915;PMS5003;58557;50.982;-3.222;2023-06-22T14:09:02;2;2;
70915;PMS5003;58557;50.982;-3.222;2023-06-22T14:11:27;4;4;
70915;PMS5003;58557;50.982;-3.222;2023-06-22T14:13:53;5;3;
70915;PMS5003;58557;50.982;-3.222;2023-06-22T14:16:18;5;3;
70915;PMS5003;58557;50.982;-3.222;2023-06-22T14:18:44;4;4;
70915;PMS5003;58557;50.982;-3.222;2023-06-22T14:21:09;3;2;
70915;PMS5003;58557;50.982;-3.222;2023-06-22T14:23:34;4;4;
70915;PMS5003;58557;50.982;-3.222;2023-06-22T14:26:00;3;3;
70915;PMS5003;58557;50.982;-3.222;2023-06-22T14:28:25;2;2;
70915;PMS5003;58557;50.982;-3.222;2023-06-22T14:30:51;3;3;
70915;PMS5003;58557;50.982;-3.222;2023-06-22T14:33:16;4;4;
70915;PMS5003;58557;50.982;-3.222;2023-06-22T14:35:42;1;1;
70915;PMS5003;58557;50.982;-3.222;2023-06-22T14:38:07;3;3;
70915;PMS5003;58557;50.982;-3.222;2023-06-22T14:40:32;3;3;
70915;PMS5003;58557;50.982;-3.222;2023-06-22T14:42:58;2;2;
70915;PMS5003;58557;50.982;-3.222;2023-06-22T14:45:23;3;3;
70915;PMS5003;58557;50.982;-3.222;2023-06-22T14:47:49;2;2;
70915;PMS5003;58557;50.982;-3.222;2023-06-22T14:50:14;3;3;
70915;PMS5003;58557;50.982;-3.222;2023-06-22T14:52:40;3;3;
70915;PMS5003;58557;50.982;-3.222;2023-06-22T14:55:06;4;3;
70915;PMS5003;58557;50.982;-3.222;2023-06-22T14:57:31;2;2;
70915;PMS5003;58557;50.982;-3.222;2023-06-22T14:59:56;3;3;
70915;PMS5003;58557;50.982;-3.222;2023-06-22T15:02:22;4;4;
70915;PMS5003;58557;50.982;-3.222;2023-06-22T15:04:47;4;3;
70915;PMS5003;58557;50.982;-3.222;2023-06-22T15:07:13;3;3;
70915;PMS5003;58557;50.982;-3.222;2023-06-22T15:09:38;4;4;
70915;PMS5003;58557;50.982;-3.222;2023-06-22T15:12:04;1;1;
70915;PMS5003;58557;50.982;-3.222;2023-06-22T15:14:29;1;1;
70915;PMS5003;58557;50.982;-3.222;2023-06-22T15:16:54;2;2;
70915;PMS5003;58557;50.982;-3.222;2023-06-22T15:19:20;2;2;
70915;PMS5003;58557;50.982;-3.222;2023-06-22T15:21:45;2;2;
70915;PMS5003;58557;50.982;-3.222;2023-06-22T15:24:11;3;3;
70915;PMS5003;58557;50.982;-3.222;2023-06-22T15:26:36;1;1;
70915;PMS5003;58557;50.982;-3.222;2023-06-22T15:29:02;3;3;
70915;PMS5003;58557;50.982;-3.222;2023-06-22T15:31:27;2;2;
70915;PMS5003;58557;50.982;-3.222;2023-06-22T15:33:52;3;3;
70915;PMS5003;58557;50.982;-3.222;2023-06-22T15:36:18;1;1;
70915;PMS5003;58557;50.982;-3.222;2023-06-22T15:38:43;1;1;
70915;PMS5003;58557;50.982;-3.222;2023-06-22T15:41:09;3;3;
70915;PMS5003;58557;50.982;-3.222;2023-06-22T15:43:34;3;3;
70915;PMS5003;58557;50.982;-3.222;2023-06-22T15:45:59;3;3;
70915;PMS5003;58557;50.982;-3.222;2023-06-22T15:48:25;2;2;
70915;PMS5003;58557;50.982;-3.222;2023-06-22T15:50:51;2;2;
70915;PMS5003;58557;50.982;-3.222;2023-06-22T15:53:16;2;2;
70915;PMS5003;58557;50.982;-3.222;2023-06-22T15:55:41;2;2;
70915;PMS5003;58557;50.982;-3.222;2023-06-22T15:58:07;2;2;
70915;PMS5003;58557;50.982;-3.222;2023-06-22T16:00:32;2;2;
70915;PMS5003;58557;50.982;-3.222;2023-06-22T16:02:58;5;3;